Time;durP1;ratioP1;P1;durP2;ratioP2;P2;SDS_P1;SDS_P2;PMS_P1;PMS_P2;Temp;Humidity;BMP_temperature;BMP_pressure;BME280_temperature;BME280_humidity;BME280_pressure;Samples;Min_cycle;Max_cycle;Signal;HPM_P1;HPM_P2
2022/10/21 00:02:02;;;;;;;20.05;6.57;;;13.00;66.00;;;;;;5053871;28;20035;-74
2022/10/21 00:04:31;;;;;;;16.48;7.13;;;12.90;66.30;;;;;;5053747;28;20033;-75
2022/10/21 00:06:56;;;;;;;51.55;10.13;;;12.90;66.30;;;;;;5054319;28;20103;-75
2022/10/21 00:09:22;;;;;;;23.40;6.82;;;13.00;66.30;;;;;;5036323;28;20037;-75
2022/10/21 00:11:48;;;;;;;12.32;6.50;;;13.00;66.30;;;;;;5054418;28;20033;-74
2022/10/21 00:14:14;;;;;;;18.33;6.75;;;13.00;66.40;;;;;;5053766;28;20036;-75
2022/10/21 00:16:40;;;;;;;17.90;7.45;;;12.90;66.50;;;;;;5053617;28;20064;-76
2022/10/21 00:19:06;;;;;;;32.03;7.68;;;12.90;66.40;;;;;;5053913;28;20025;-75
2022/10/21 00:21:32;;;;;;;17.33;7.85;;;12.90;66.60;;;;;;5053620;28;20036;-75
2022/10/21 00:23:58;;;;;;;17.30;7.07;;;12.90;66.80;;;;;;5053946;28;20049;-75
2022/10/21 00:26:23;;;;;;;12.38;6.85;;;12.90;67.10;;;;;;5054178;28;20052;-75
2022/10/21 00:28:59;;;;;;;17.98;6.47;;;12.80;66.90;;;;;;5053503;28;20033;-74
2022/10/21 00:31:25;;;;;;;14.93;6.55;;;12.80;66.80;;;;;;5052602;28;20021;-74
2022/10/21 00:33:51;;;;;;;13.50;7.47;;;12.80;66.70;;;;;;5053480;28;20036;-75
2022/10/21 00:36:17;;;;;;;25.65;8.20;;;12.80;66.60;;;;;;5053394;28;20028;-74
2022/10/21 00:38:45;;;;;;;18.77;7.43;;;12.80;66.60;;;;;;5053172;28;20376;-74
2022/10/21 00:41:12;;;;;;;13.98;7.10;;;12.70;66.60;;;;;;5053378;28;20036;-75
2022/10/21 00:44:00;;;;;;;13.10;6.88;;;12.70;66.50;;;;;;5053563;28;20107;-75
2022/10/21 00:46:38;;;;;;;26.02;7.38;;;12.70;66.40;;;;;;5053412;28;20017;-75
2022/10/21 00:49:41;;;;;;;19.75;7.22;;;12.70;66.30;;;;;;5053498;28;20115;-75
2022/10/21 00:52:21;;;;;;;13.77;7.30;;;12.70;66.10;;;;;;5025428;28;20043;-75
2022/10/21 00:54:50;;;;;;;14.27;7.70;;;12.70;66.20;;;;;;5053540;28;20022;-75
2022/10/21 00:57:18;;;;;;;14.80;8.77;;;12.60;66.10;;;;;;5035191;28;20028;-74
2022/10/21 00:59:49;;;;;;;13.52;6.95;;;12.60;66.10;;;;;;5052623;28;20052;-75
2022/10/21 01:02:17;;;;;;;17.52;8.10;;;12.60;66.30;;;;;;5035215;28;20036;-75
2022/10/21 01:04:44;;;;;;;14.88;7.07;;;12.60;66.40;;;;;;5035198;28;20059;-74
2022/10/21 01:07:11;;;;;;;20.30;7.07;;;12.50;66.50;;;;;;5035205;28;20026;-75
2022/10/21 01:09:37;;;;;;;12.85;7.28;;;12.60;66.80;;;;;;5052952;28;20040;-76
2022/10/21 01:12:07;;;;;;;12.63;7.72;;;12.60;66.80;;;;;;5053050;28;20028;-75
2022/10/21 01:15:01;;;;;;;22.35;8.52;;;12.60;66.80;;;;;;5052075;28;20032;-75
2022/10/21 01:18:09;;;;;;;12.52;6.97;;;12.60;66.70;;;;;;5052355;28;20228;-74
2022/10/21 01:20:40;;;;;;;16.92;7.40;;;12.60;66.50;;;;;;5035114;28;20061;-75
2022/10/21 01:23:25;;;;;;;19.90;7.68;;;12.70;66.60;;;;;;5052851;28;20053;-75
2022/10/21 01:26:52;;;;;;;16.13;7.05;;;12.70;66.60;;;;;;5053059;28;20033;-75
2022/10/21 01:29:36;;;;;;;19.75;6.50;;;12.60;66.40;;;;;;4917492;29;20061;-75
2022/10/21 01:32:21;;;;;;;8.00;6.00;;;12.70;66.40;;;;;;5051949;28;20029;-75
2022/10/21 01:34:56;;;;;;;12.13;7.32;;;12.70;66.20;;;;;;5015342;28;20485;-75
2022/10/21 01:37:36;;;;;;;15.15;7.50;;;12.70;66.10;;;;;;5033069;28;20025;-74
2022/10/21 01:40:21;;;;;;;20.45;7.10;;;12.70;66.30;;;;;;5015354;28;20121;-75
2022/10/21 01:42:56;;;;;;;25.20;7.82;;;12.70;66.30;;;;;;5035410;28;20029;-75
2022/10/21 01:45:33;;;;;;;16.73;7.80;;;12.70;66.10;;;;;;5036691;28;20036;-74
2022/10/21 01:48:07;;;;;;;49.15;10.50;;;12.70;66.00;;;;;;5036503;28;20021;-74
2022/10/21 01:50:37;;;;;;;13.00;7.35;;;12.80;65.90;;;;;;5054168;28;20055;-75
2022/10/21 01:53:10;;;;;;;14.02;7.40;;;12.80;65.90;;;;;;5056903;28;20032;-75
2022/10/21 01:55:38;;;;;;;10.48;7.03;;;12.80;65.80;;;;;;5056641;28;20190;-75
2022/10/21 01:58:26;;;;;;;18.80;7.13;;;12.80;65.70;;;;;;5038598;28;20041;-75
2022/10/21 02:00:55;;;;;;;12.50;5.75;;;12.80;65.50;;;;;;5056460;28;20049;-75
2022/10/21 02:03:28;;;;;;;9.55;5.85;;;12.80;65.30;;;;;;5056184;28;20032;-74
2022/10/21 02:05:54;;;;;;;25.88;7.85;;;12.70;65.20;;;;;;5038313;28;20025;-74
2022/10/21 02:08:20;;;;;;;13.32;6.75;;;12.80;65.20;;;;;;5055931;28;20036;-74
2022/10/21 02:10:49;;;;;;;13.75;6.63;;;12.70;65.10;;;;;;5056356;28;20104;-75
2022/10/21 02:13:23;;;;;;;17.20;6.07;;;12.70;65.30;;;;;;5056022;28;20048;-75
2022/10/21 02:15:52;;;;;;;13.80;6.13;;;12.70;65.20;;;;;;5056362;28;20495;-75
2022/10/21 02:18:23;;;;;;;66.80;10.20;;;12.70;65.30;;;;;;5038284;28;20075;-75
2022/10/21 02:21:08;;;;;;;32.28;8.18;;;12.70;65.30;;;;;;5056287;28;20797;-75
2022/10/21 02:23:53;;;;;;;11.80;5.82;;;12.60;65.40;;;;;;5038170;28;20465;-75
2022/10/21 02:26:25;;;;;;;9.50;6.28;;;12.60;65.30;;;;;;5052890;28;20469;-75
2022/10/21 02:28:56;;;;;;;6.97;5.63;;;12.60;65.30;;;;;;5055607;28;20040;-75
2022/10/21 02:31:49;;;;;;;16.88;6.30;;;12.60;65.30;;;;;;5055676;28;20465;-75
2022/10/21 02:34:30;;;;;;;13.18;7.03;;;12.60;65.40;;;;;;5035719;28;20021;-75
2022/10/21 02:37:11;;;;;;;21.70;7.60;;;12.60;65.50;;;;;;5036067;28;20034;-75
2022/10/21 02:40:07;;;;;;;14.90;7.15;;;12.60;65.60;;;;;;5035918;28;20060;-74
2022/10/21 02:42:38;;;;;;;12.48;6.60;;;12.60;65.80;;;;;;5023520;28;20036;-75
2022/10/21 02:45:05;;;;;;;9.55;6.63;;;12.70;65.90;;;;;;5055653;28;20385;-75
2022/10/21 02:47:31;;;;;;;10.25;6.30;;;12.70;66.10;;;;;;5055240;28;20032;-75
2022/10/21 02:49:56;;;;;;;13.18;5.47;;;12.70;66.00;;;;;;5055661;28;20039;-75
2022/10/21 02:52:22;;;;;;;17.73;7.07;;;12.80;66.10;;;;;;5037859;28;20178;-75
2022/10/21 02:54:48;;;;;;;14.98;7.50;;;12.80;66.10;;;;;;5054452;28;20021;-74
2022/10/21 02:57:14;;;;;;;11.48;6.85;;;12.80;66.00;;;;;;5055781;28;20025;-74
2022/10/21 02:59:43;;;;;;;16.08;7.07;;;12.90;66.00;;;;;;5055095;28;20497;-75
2022/10/21 03:02:08;;;;;;;11.40;7.60;;;12.90;66.00;;;;;;5054509;28;20033;-75
2022/10/21 03:04:34;;;;;;;10.73;6.88;;;12.90;65.90;;;;;;5054721;28;20025;-74
2022/10/21 03:07:00;;;;;;;12.90;7.18;;;13.00;65.90;;;;;;5054920;28;20056;-74
2022/10/21 03:09:25;;;;;;;12.23;7.40;;;13.00;65.70;;;;;;5037056;28;20065;-74
2022/10/21 03:11:51;;;;;;;14.90;7.97;;;13.00;65.70;;;;;;5055127;28;20139;-75
2022/10/21 03:14:19;;;;;;;15.40;8.35;;;13.10;65.60;;;;;;5037202;28;20032;-75
2022/10/21 03:16:45;;;;;;;12.88;7.40;;;13.00;65.40;;;;;;5037223;28;20086;-75
2022/10/21 03:19:11;;;;;;;16.92;7.95;;;13.10;65.40;;;;;;5054474;28;20041;-75
2022/10/21 03:21:37;;;;;;;15.65;8.65;;;13.10;65.30;;;;;;5037053;28;20026;-75
2022/10/21 03:24:06;;;;;;;16.50;8.45;;;13.10;65.20;;;;;;5054905;28;20028;-75
2022/10/21 03:26:32;;;;;;;16.85;8.35;;;13.20;65.00;;;;;;5054575;28;20036;-75
2022/10/21 03:28:58;;;;;;;19.60;8.85;;;13.20;64.80;;;;;;5036578;28;20037;-75
2022/10/21 03:31:23;;;;;;;15.05;7.57;;;13.20;64.80;;;;;;5036955;28;20025;-75
2022/10/21 03:33:52;;;;;;;16.02;8.63;;;13.20;64.70;;;;;;5036548;28;20132;-75
2022/10/21 03:36:18;;;;;;;18.90;8.82;;;13.30;64.70;;;;;;5054609;28;20025;-76
2022/10/21 03:38:44;;;;;;;12.25;8.23;;;13.30;64.50;;;;;;5036839;28;20169;-76
2022/10/21 03:41:09;;;;;;;14.05;7.80;;;13.30;64.40;;;;;;5054050;28;20058;-75
2022/10/21 03:43:37;;;;;;;11.05;8.55;;;13.30;64.40;;;;;;5054403;28;20489;-75
2022/10/21 03:46:03;;;;;;;13.07;8.65;;;13.30;64.40;;;;;;5054671;28;20025;-75
2022/10/21 03:48:29;;;;;;;13.88;7.75;;;13.40;64.40;;;;;;5054235;28;20092;-75
2022/10/21 03:50:55;;;;;;;13.68;7.50;;;13.40;64.30;;;;;;5054917;28;20025;-75
2022/10/21 03:53:22;;;;;;;10.15;6.78;;;13.40;64.30;;;;;;5054180;28;20025;-75
2022/10/21 03:55:50;;;;;;;11.32;7.20;;;13.50;64.30;;;;;;5053898;28;20035;-75
2022/10/21 03:58:16;;;;;;;14.38;7.35;;;13.50;64.20;;;;;;5054628;28;20107;-75
2022/10/21 04:00:41;;;;;;;10.32;6.97;;;13.60;64.20;;;;;;5032798;28;20089;-75
2022/10/21 04:03:10;;;;;;;10.88;6.78;;;13.60;64.00;;;;;;5034283;28;20381;-75
2022/10/21 04:05:36;;;;;;;13.05;7.40;;;13.60;63.90;;;;;;5032662;28;20071;-75
2022/10/21 04:08:02;;;;;;;11.07;7.10;;;13.60;63.90;;;;;;5033934;28;20420;-75
2022/10/21 04:10:28;;;;;;;14.20;6.63;;;13.70;63.90;;;;;;5032556;28;20029;-75
2022/10/21 04:12:53;;;;;;;14.88;7.35;;;13.70;63.90;;;;;;5032916;28;20021;-75
2022/10/21 04:15:19;;;;;;;16.02;7.55;;;13.70;63.80;;;;;;5032952;28;20117;-75
2022/10/21 04:17:46;;;;;;;12.07;7.90;;;13.80;63.80;;;;;;5034164;28;20030;-76
2022/10/21 04:20:12;;;;;;;22.80;8.88;;;13.80;63.70;;;;;;5033829;28;20496;-75
2022/10/21 04:22:37;;;;;;;12.65;7.97;;;13.80;63.70;;;;;;5032587;28;20029;-76
2022/10/21 04:25:04;;;;;;;17.30;8.60;;;13.90;63.60;;;;;;5033244;28;20025;-75
2022/10/21 04:27:30;;;;;;;12.98;8.10;;;13.90;63.60;;;;;;5032462;28;20021;-74
2022/10/21 04:29:55;;;;;;;14.18;8.32;;;13.90;63.50;;;;;;5033671;28;20034;-76
2022/10/21 04:32:21;;;;;;;11.43;7.22;;;13.90;63.40;;;;;;5034195;28;20497;-75
2022/10/21 04:34:47;;;;;;;12.18;8.20;;;13.90;63.40;;;;;;5032472;28;20031;-76
2022/10/21 04:37:13;;;;;;;12.55;7.43;;;13.90;63.30;;;;;;5033396;28;20116;-75
2022/10/21 04:39:38;;;;;;;16.48;8.60;;;14.00;63.30;;;;;;5032437;28;20037;-75
2022/10/21 04:42:04;;;;;;;15.60;8.18;;;14.00;63.20;;;;;;5032435;28;20485;-74
2022/10/21 04:44:30;;;;;;;16.95;9.30;;;14.00;63.10;;;;;;5032298;28;20033;-75
2022/10/21 04:46:56;;;;;;;11.88;8.55;;;14.00;63.00;;;;;;5033877;28;20025;-75
2022/10/21 04:49:24;;;;;;;12.82;8.98;;;14.00;62.80;;;;;;5033529;28;20037;-75
2022/10/21 04:51:50;;;;;;;17.63;10.18;;;14.00;62.70;;;;;;5033287;28;20432;-75
2022/10/21 04:54:18;;;;;;;14.57;8.35;;;14.00;62.60;;;;;;5033776;28;20030;-74
2022/10/21 04:56:44;;;;;;;15.95;9.15;;;14.00;62.60;;;;;;5033605;28;20358;-75
2022/10/21 04:59:10;;;;;;;15.50;9.23;;;14.00;62.50;;;;;;5033907;28;20094;-75
2022/10/21 05:01:36;;;;;;;13.95;9.38;;;14.00;62.50;;;;;;5053156;28;20492;-75
2022/10/21 05:04:02;;;;;;;13.10;8.88;;;14.00;62.40;;;;;;5053403;28;20155;-75
2022/10/21 05:06:30;;;;;;;11.38;8.25;;;13.90;62.40;;;;;;5053399;28;20029;-75
2022/10/21 05:08:58;;;;;;;15.80;9.43;;;13.90;62.50;;;;;;5052966;28;20362;-75
2022/10/21 05:11:24;;;;;;;15.57;9.50;;;13.90;62.50;;;;;;5035273;28;20461;-75
2022/10/21 05:13:50;;;;;;;13.85;8.90;;;13.90;62.50;;;;;;5053287;28;20032;-75
2022/10/21 05:16:16;;;;;;;13.75;8.20;;;13.90;62.50;;;;;;5036403;28;20021;-75
2022/10/21 05:18:41;;;;;;;12.98;8.98;;;13.90;62.60;;;;;;5041867;28;20155;-75
2022/10/21 05:21:07;;;;;;;20.65;8.52;;;13.90;62.60;;;;;;5059013;28;20060;-75
2022/10/21 05:23:33;;;;;;;12.40;8.15;;;13.90;62.70;;;;;;5059344;28;20029;-75
2022/10/21 05:26:01;;;;;;;16.48;8.43;;;13.90;62.70;;;;;;5060004;28;20025;-74
2022/10/21 05:28:27;;;;;;;12.35;9.05;;;13.90;62.70;;;;;;5059414;28;20445;-75
2022/10/21 05:30:53;;;;;;;20.30;8.90;;;13.90;62.60;;;;;;5059745;28;20063;-75
2022/10/21 05:33:19;;;;;;;13.27;7.97;;;13.90;62.60;;;;;;5059552;28;20025;-74
2022/10/21 05:35:57;;;;;;;11.90;8.60;;;13.90;62.60;;;;;;5041587;28;20426;-75
2022/10/21 05:38:23;;;;;;;20.00;9.15;;;13.90;62.50;;;;;;5041606;28;20437;-75
2022/10/21 05:40:49;;;;;;;13.30;9.20;;;13.90;62.40;;;;;;5059587;28;20045;-74
2022/10/21 05:43:15;;;;;;;18.88;9.30;;;13.90;62.30;;;;;;5059620;28;20531;-74
2022/10/21 05:45:40;;;;;;;14.55;7.93;;;13.90;62.20;;;;;;5041054;28;20037;-75
2022/10/21 05:48:06;;;;;;;10.75;7.72;;;13.90;62.20;;;;;;5059493;28;20469;-75
2022/10/21 05:50:32;;;;;;;14.68;9.65;;;13.90;62.10;;;;;;5059462;28;20473;-74
2022/10/21 05:52:58;;;;;;;11.77;7.60;;;13.90;62.00;;;;;;5059623;28;20449;-75
2022/10/21 05:55:24;;;;;;;12.77;7.75;;;13.90;62.10;;;;;;5059442;28;20518;-74
2022/10/21 05:57:50;;;;;;;11.55;8.18;;;13.90;62.10;;;;;;5041508;28;20029;-75
2022/10/21 06:00:15;;;;;;;11.45;7.75;;;13.90;62.10;;;;;;5041086;28;20122;-75
2022/10/21 06:02:41;;;;;;;10.38;7.20;;;13.90;62.10;;;;;;5059489;28;20453;-75
2022/10/21 06:05:07;;;;;;;13.10;7.65;;;13.90;62.20;;;;;;5059474;28;20044;-75
2022/10/21 06:07:33;;;;;;;14.38;7.45;;;13.90;62.30;;;;;;5059464;28;20021;-74
2022/10/21 06:10:02;;;;;;;12.65;8.15;;;14.00;62.40;;;;;;5059381;28;20032;-75
2022/10/21 06:12:27;;;;;;;13.35;8.88;;;14.00;62.40;;;;;;5058963;28;20029;-75
2022/10/21 06:14:54;;;;;;;16.98;9.23;;;14.00;62.20;;;;;;5059390;28;20055;-74
2022/10/21 06:17:20;;;;;;;18.67;8.80;;;14.00;61.90;;;;;;5041188;28;20032;-75
2022/10/21 06:19:47;;;;;;;12.65;8.52;;;14.10;62.00;;;;;;5041435;28;20029;-75
2022/10/21 06:22:13;;;;;;;16.63;8.38;;;14.10;62.00;;;;;;5058845;28;20503;-74
2022/10/21 06:24:39;;;;;;;13.38;9.05;;;14.10;61.90;;;;;;5059622;28;20109;-74
2022/10/21 06:27:05;;;;;;;15.75;9.52;;;14.10;61.90;;;;;;5041433;28;20061;-73
2022/10/21 06:29:31;;;;;;;17.48;9.18;;;14.20;61.80;;;;;;5038176;28;20443;-74
2022/10/21 06:31:59;;;;;;;11.32;8.07;;;14.20;62.00;;;;;;5055990;28;20057;-75
2022/10/21 06:34:25;;;;;;;13.63;8.60;;;14.30;61.90;;;;;;5056086;28;20037;-74
2022/10/21 06:36:51;;;;;;;14.05;8.27;;;14.30;61.90;;;;;;5055977;28;20036;-74
2022/10/21 06:39:16;;;;;;;12.93;8.23;;;14.30;61.70;;;;;;5037984;28;20106;-75
2022/10/21 06:41:42;;;;;;;13.95;9.10;;;14.40;61.70;;;;;;5038116;28;20437;-75
2022/10/21 06:44:08;;;;;;;21.80;9.10;;;14.40;61.30;;;;;;5056321;28;20086;-74
2022/10/21 06:46:34;;;;;;;19.35;9.50;;;14.40;61.00;;;;;;5055844;28;20017;-74
2022/10/21 06:48:59;;;;;;;13.77;9.00;;;14.50;60.80;;;;;;5037811;28;20044;-75
2022/10/21 06:51:25;;;;;;;14.48;8.73;;;14.50;60.80;;;;;;5037623;28;20487;-74
2022/10/21 06:53:54;;;;;;;15.85;8.93;;;14.50;60.70;;;;;;5037757;28;20032;-75
2022/10/21 06:56:21;;;;;;;13.95;9.18;;;14.50;60.70;;;;;;5055749;28;20029;-74
2022/10/21 06:58:48;;;;;;;15.63;9.18;;;14.50;60.70;;;;;;5055866;28;20044;-75
2022/10/21 07:01:17;;;;;;;15.95;9.68;;;14.50;60.70;;;;;;5055145;28;20049;-74
2022/10/21 07:03:43;;;;;;;15.90;8.23;;;14.50;60.70;;;;;;5055344;28;20040;-75
2022/10/21 07:06:09;;;;;;;13.48;8.10;;;14.50;60.80;;;;;;5055422;28;20380;-74
2022/10/21 07:08:36;;;;;;;17.05;8.32;;;14.50;60.90;;;;;;5055359;28;20388;-74
2022/10/21 07:11:03;;;;;;;16.05;8.68;;;14.60;61.00;;;;;;5055468;28;20029;-74
2022/10/21 07:13:28;;;;;;;20.42;9.25;;;14.60;60.80;;;;;;5037170;28;20025;-75
2022/10/21 07:16:06;;;;;;;14.65;8.38;;;14.60;60.70;;;;;;5055094;28;20029;-75
2022/10/21 07:18:33;;;;;;;17.67;9.48;;;14.70;60.50;;;;;;5055423;28;20029;-74
2022/10/21 07:21:07;;;;;;;14.07;9.07;;;14.70;60.50;;;;;;5037113;28;20120;-75
2022/10/21 07:23:34;;;;;;;18.05;8.98;;;14.70;60.20;;;;;;5037281;28;20028;-75
2022/10/21 07:26:04;;;;;;;18.00;10.23;;;14.80;60.10;;;;;;5037318;28;20053;-74
2022/10/21 07:28:30;;;;;;;18.10;9.18;;;14.80;59.80;;;;;;5055160;28;20037;-74
2022/10/21 07:30:56;;;;;;;11.88;7.93;;;14.90;59.60;;;;;;5055078;28;20471;-75
2022/10/21 07:33:22;;;;;;;16.08;7.30;;;15.00;59.70;;;;;;5054220;28;20151;-75
2022/10/21 07:35:48;;;;;;;11.82;8.60;;;15.00;59.80;;;;;;5053424;28;20024;-75
2022/10/21 07:38:13;;;;;;;14.40;7.95;;;15.10;59.70;;;;;;5037094;28;20025;-75
2022/10/21 07:40:43;;;;;;;14.05;8.68;;;15.10;59.50;;;;;;5054006;28;20029;-74
2022/10/21 07:43:09;;;;;;;9.90;7.65;;;15.20;59.40;;;;;;5037207;28;20029;-75
2022/10/21 07:45:42;;;;;;;12.93;7.65;;;15.20;59.30;;;;;;5052407;28;20036;-73
2022/10/21 07:48:09;;;;;;;15.27;8.60;;;15.30;59.30;;;;;;5033145;28;20025;-75
2022/10/21 07:50:35;;;;;;;16.38;7.95;;;15.30;59.30;;;;;;5054103;28;20354;-73
2022/10/21 07:53:02;;;;;;;11.50;7.45;;;15.40;59.40;;;;;;5053977;28;20042;-74
2022/10/21 07:55:28;;;;;;;16.42;8.98;;;15.50;59.30;;;;;;5036567;28;20025;-75
2022/10/21 07:57:54;;;;;;;10.35;7.32;;;15.50;59.20;;;;;;5054082;28;20033;-74
2022/10/21 08:00:20;;;;;;;12.27;7.32;;;15.60;59.20;;;;;;5053711;28;20040;-74
2022/10/21 08:02:46;;;;;;;14.77;8.27;;;15.70;59.00;;;;;;5054056;28;20095;-74
2022/10/21 08:05:12;;;;;;;15.82;8.13;;;15.70;58.90;;;;;;5053677;28;20061;-74
2022/10/21 08:07:37;;;;;;;16.52;8.48;;;15.80;58.80;;;;;;5053847;28;20090;-74
2022/10/21 08:10:04;;;;;;;13.18;8.15;;;15.90;58.90;;;;;;5035807;28;20040;-74
2022/10/21 08:12:30;;;;;;;13.75;7.90;;;15.90;58.70;;;;;;5035840;28;20021;-75
2022/10/21 08:14:56;;;;;;;11.68;7.82;;;16.10;58.80;;;;;;5054167;28;20032;-75
2022/10/21 08:17:22;;;;;;;12.48;7.90;;;16.20;58.80;;;;;;5036123;28;20032;-75
2022/10/21 08:19:48;;;;;;;16.35;9.93;;;16.30;58.20;;;;;;5054320;28;20029;-73
2022/10/21 08:22:13;;;;;;;18.35;11.15;;;16.40;58.00;;;;;;5052867;28;20029;-75
2022/10/21 08:24:41;;;;;;;22.75;10.35;;;16.60;57.80;;;;;;5053531;28;20036;-75
2022/10/21 08:27:10;;;;;;;18.40;10.10;;;16.70;57.70;;;;;;5053808;28;20079;-75
2022/10/21 08:29:36;;;;;;;15.25;9.82;;;16.90;57.20;;;;;;5053696;28;20041;-75
2022/10/21 08:32:03;;;;;;;15.68;9.15;;;17.00;57.20;;;;;;5053323;28;20079;-75
2022/10/21 08:34:29;;;;;;;18.45;9.40;;;17.10;56.90;;;;;;5035729;28;20029;-76
2022/10/21 08:36:55;;;;;;;15.23;9.05;;;17.20;56.70;;;;;;5053825;28;20075;-76
2022/10/21 08:39:21;;;;;;;15.07;9.35;;;17.30;56.50;;;;;;5053097;28;20032;-76
2022/10/21 08:41:55;;;;;;;21.63;10.57;;;17.40;56.40;;;;;;5035667;28;20021;-75
2022/10/21 08:44:45;;;;;;;20.38;9.05;;;17.50;56.30;;;;;;5035554;28;20114;-75
2022/10/21 08:47:27;;;;;;;13.88;9.70;;;17.60;56.30;;;;;;5052902;28;20063;-76
2022/10/21 08:50:13;;;;;;;14.15;8.35;;;17.70;55.60;;;;;;5035559;28;20381;-75
2022/10/21 08:52:47;;;;;;;24.60;9.10;;;17.70;55.50;;;;;;5052265;28;20063;-76
2022/10/21 08:55:22;;;;;;;15.90;7.57;;;17.90;55.30;;;;;;5035325;28;20029;-76
2022/10/21 08:57:49;;;;;;;17.50;8.32;;;17.90;55.90;;;;;;5053444;28;20442;-75
2022/10/21 09:00:21;;;;;;;21.52;10.02;;;18.00;55.10;;;;;;5052703;28;20049;-76
2022/10/21 09:02:59;;;;;;;14.38;9.60;;;18.10;54.90;;;;;;5035392;28;20021;-75
2022/10/21 09:05:51;;;;;;;19.73;10.93;;;18.20;54.80;;;;;;5052839;28;20074;-74
2022/10/21 09:08:28;;;;;;;18.02;10.65;;;18.30;54.60;;;;;;5051892;28;20163;-75
2022/10/21 09:11:12;;;;;;;19.67;10.65;;;18.30;54.40;;;;;;5034933;28;20025;-75
2022/10/21 09:14:03;;;;;;;16.58;10.15;;;18.40;54.30;;;;;;5035087;28;20493;-74
2022/10/21 09:16:38;;;;;;;27.45;10.52;;;18.50;53.90;;;;;;5035263;28;20025;-74
2022/10/21 09:19:26;;;;;;;18.83;9.55;;;18.50;53.80;;;;;;5053099;28;20021;-74
2022/10/21 09:21:57;;;;;;;16.20;9.60;;;18.60;53.80;;;;;;5034977;28;20028;-75
2022/10/21 09:24:51;;;;;;;16.63;9.52;;;18.70;53.40;;;;;;5052479;28;20037;-75
2022/10/21 09:27:18;;;;;;;18.05;9.80;;;18.80;53.70;;;;;;5000794;28;20048;-75
2022/10/21 09:29:48;;;;;;;21.90;9.80;;;18.90;52.80;;;;;;5053301;28;20039;-74
2022/10/21 09:32:17;;;;;;;24.10;10.38;;;19.00;52.80;;;;;;5034085;28;20036;-74
2022/10/21 09:34:52;;;;;;;22.42;9.52;;;19.10;52.60;;;;;;5034711;28;20036;-75
2022/10/21 09:37:41;;;;;;;18.58;9.50;;;19.10;52.60;;;;;;5035062;28;20104;-75
2022/10/21 09:40:22;;;;;;;27.20;10.05;;;19.20;52.70;;;;;;5052625;28;20087;-76
2022/10/21 09:42:51;;;;;;;17.52;10.02;;;19.30;52.00;;;;;;5035080;28;20115;-74
2022/10/21 09:45:37;;;;;;;18.40;10.25;;;19.40;51.90;;;;;;5052490;28;20484;-74
2022/10/21 09:48:13;;;;;;;22.83;9.32;;;19.50;51.90;;;;;;5034804;28;20383;-75
2022/10/21 09:50:39;;;;;;;17.73;9.65;;;19.60;51.80;;;;;;5034827;28;20021;-75
2022/10/21 09:53:29;;;;;;;17.33;10.20;;;19.70;51.80;;;;;;5034715;28;20443;-75
2022/10/21 09:56:02;;;;;;;18.90;9.55;;;19.70;51.50;;;;;;5052846;28;20037;-75
2022/10/21 09:59:03;;;;;;;15.60;8.48;;;19.80;50.70;;;;;;5052934;28;20036;-74
2022/10/21 10:01:29;;;;;;;13.27;7.93;;;19.90;51.00;;;;;;5051908;28;20049;-75
2022/10/21 10:03:55;;;;;;;18.77;9.80;;;19.90;51.00;;;;;;5055331;28;20028;-75
2022/10/21 10:06:32;;;;;;;14.70;9.38;;;19.90;50.50;;;;;;5038402;28;20175;-75
2022/10/21 10:09:14;;;;;;;18.10;10.05;;;19.90;50.80;;;;;;5056116;28;20404;-75
2022/10/21 10:11:52;;;;;;;14.45;10.18;;;19.90;50.40;;;;;;5056098;28;20096;-75
2022/10/21 10:14:28;;;;;;;16.02;9.82;;;19.90;50.70;;;;;;5056227;28;20159;-75
2022/10/21 10:16:55;;;;;;;16.63;10.13;;;19.90;50.60;;;;;;5056251;28;20025;-75
2022/10/21 10:19:23;;;;;;;16.95;9.82;;;20.00;50.30;;;;;;5038181;28;20068;-75
2022/10/21 10:22:28;;;;;;;23.48;13.75;;;20.00;50.40;;;;;;5056241;28;20408;-75
2022/10/21 10:25:05;;;;;;;22.08;10.95;;;20.00;50.50;;;;;;4955552;29;20090;-74
2022/10/21 10:27:31;;;;;;;15.35;10.50;;;20.00;50.50;;;;;;4962147;28;20074;-74
2022/10/21 10:30:00;;;;;;;26.05;13.57;;;20.00;50.60;;;;;;4961773;28;20184;-74
2022/10/21 10:32:31;;;;;;;22.90;12.70;;;20.10;50.50;;;;;;4946209;29;20107;-74
2022/10/21 10:35:02;;;;;;;22.50;12.70;;;20.10;50.40;;;;;;4955268;29;20075;-75
2022/10/21 10:37:32;;;;;;;28.30;12.88;;;20.20;50.60;;;;;;4956213;28;20440;-73
2022/10/21 10:40:01;;;;;;;19.02;11.98;;;20.20;50.30;;;;;;4965433;28;20093;-74
2022/10/21 10:42:32;;;;;;;22.45;11.45;;;20.30;50.00;;;;;;4938769;29;20039;-75
2022/10/21 10:45:14;;;;;;;21.90;11.50;;;20.30;50.10;;;;;;4954386;29;20054;-74
2022/10/21 10:47:52;;;;;;;26.23;13.00;;;20.30;50.10;;;;;;4955022;29;20127;-74
2022/10/21 10:50:36;;;;;;;20.88;10.90;;;20.30;50.00;;;;;;4955225;28;20114;-74
2022/10/21 10:53:31;;;;;;;15.43;10.00;;;20.30;50.20;;;;;;4962144;28;20428;-75
2022/10/21 10:56:02;;;;;;;23.63;9.98;;;20.30;50.00;;;;;;5017332;28;20029;-73
2022/10/21 10:58:32;;;;;;;13.60;8.75;;;20.30;50.00;;;;;;5038786;28;20435;-74
2022/10/21 11:01:01;;;;;;;25.17;9.50;;;20.40;50.00;;;;;;5033758;28;20045;-74
2022/10/21 11:03:37;;;;;;;24.50;8.65;;;20.40;49.80;;;;;;5035163;28;20029;-74
2022/10/21 11:06:13;;;;;;;15.95;9.32;;;20.30;49.70;;;;;;5035255;28;20172;-75
2022/10/21 11:08:54;;;;;;;16.40;9.23;;;20.30;49.40;;;;;;5028548;28;20042;-75
2022/10/21 11:11:43;;;;;;;18.45;8.75;;;20.30;49.60;;;;;;5034654;28;20104;-75
2022/10/21 11:14:18;;;;;;;17.65;9.32;;;20.20;49.70;;;;;;5033256;28;20033;-75
2022/10/21 11:17:02;;;;;;;16.00;8.60;;;20.20;49.80;;;;;;5034048;28;20021;-74
2022/10/21 11:19:49;;;;;;;21.90;7.70;;;20.20;49.90;;;;;;5034881;28;20029;-74
2022/10/21 11:22:19;;;;;;;12.32;7.47;;;20.20;49.80;;;;;;5034288;28;20032;-75
2022/10/21 11:25:10;;;;;;;16.98;8.23;;;20.20;50.00;;;;;;5034918;28;20187;-74
2022/10/21 11:28:12;;;;;;;13.15;8.23;;;20.20;50.00;;;;;;5033268;28;20124;-73
2022/10/21 11:30:56;;;;;;;13.02;8.10;;;20.20;50.00;;;;;;5020161;28;20037;-74
2022/10/21 11:33:28;;;;;;;13.18;7.50;;;20.10;49.70;;;;;;5033849;28;20052;-75
2022/10/21 11:36:16;;;;;;;14.73;8.27;;;20.10;49.80;;;;;;5033214;28;20413;-74
2022/10/21 11:38:42;;;;;;;12.43;6.80;;;20.10;49.70;;;;;;5033289;28;20057;-72
2022/10/21 11:41:36;;;;;;;12.45;7.30;;;20.10;49.90;;;;;;5033263;28;20115;-73
2022/10/21 11:44:12;;;;;;;15.57;7.22;;;20.20;49.60;;;;;;5034307;28;20500;-74
2022/10/21 11:47:13;;;;;;;12.95;7.35;;;20.20;49.60;;;;;;5033012;28;20029;-74
2022/10/21 11:49:58;;;;;;;10.85;7.50;;;20.20;49.50;;;;;;5034384;28;20037;-73
2022/10/21 11:52:49;;;;;;;12.38;7.13;;;20.30;49.20;;;;;;5034319;28;20036;-73
2022/10/21 11:55:38;;;;;;;11.48;7.03;;;20.30;49.10;;;;;;5032925;28;20389;-74
2022/10/21 12:01:22;;;;;;;11.73;7.28;;;20.40;48.90;;;;;;4964849;23;20043;-74
2022/10/21 12:03:59;;;;;;;16.67;6.80;;;20.40;49.00;;;;;;4919308;28;20031;-75
2022/10/21 12:06:46;;;;;;;12.15;7.78;;;20.40;48.90;;;;;;4975599;28;20053;-76
2022/10/21 12:10:03;;;;;;;9.45;6.70;;;20.40;48.50;;;;;;5012279;22;20070;-95
2022/10/21 12:12:41;;;;;;;11.48;7.22;;;20.40;48.40;;;;;;5114710;23;21066;-72
2022/10/21 12:15:16;;;;;;;10.32;7.25;;;20.50;48.50;;;;;;4948147;28;20037;-73
2022/10/21 12:17:44;;;;;;;13.93;7.18;;;20.40;48.10;;;;;;4943969;28;20031;-75
2022/10/21 12:20:25;;;;;;;14.85;7.85;;;20.40;48.10;;;;;;4933719;28;20483;-76
2022/10/21 12:23:01;;;;;;;16.10;8.30;;;20.40;48.00;;;;;;4952554;28;20035;-75
2022/10/21 12:26:02;;;;;;;16.42;7.68;;;20.40;47.80;;;;;;4952358;29;20020;-74
2022/10/21 12:28:44;;;;;;;10.90;7.60;;;20.30;48.00;;;;;;4952126;28;20407;-75
2022/10/21 12:31:13;;;;;;;21.35;8.23;;;20.20;47.80;;;;;;4947473;29;20027;-80
2022/10/21 12:33:44;;;;;;;13.05;7.05;;;20.20;48.00;;;;;;4942555;28;20019;-68
2022/10/21 12:36:37;;;;;;;10.90;6.90;;;20.10;48.30;;;;;;4952287;28;20032;-71
2022/10/21 12:39:05;;;;;;;11.35;7.45;;;20.00;48.40;;;;;;4951392;28;20102;-69
2022/10/21 12:41:36;;;;;;;13.63;6.50;;;19.90;48.50;;;;;;5053167;28;20029;-71
2022/10/21 12:44:04;;;;;;;9.70;6.57;;;19.90;48.80;;;;;;4984170;28;20055;-76
2022/10/21 12:46:38;;;;;;;8.32;6.32;;;19.80;48.80;;;;;;4939241;28;20016;-76
2022/10/21 12:49:32;;;;;;;10.68;6.80;;;19.80;49.00;;;;;;4952175;28;20463;-74
2022/10/21 12:52:07;;;;;;;10.55;6.55;;;19.80;49.20;;;;;;4945333;28;20119;-80
2022/10/21 12:54:40;;;;;;;10.95;7.55;;;19.80;49.30;;;;;;4952162;28;20024;-76
2022/10/21 12:57:10;;;;;;;13.40;7.57;;;19.80;49.00;;;;;;4952093;28;20387;-71
2022/10/21 12:59:41;;;;;;;11.40;6.90;;;19.70;49.00;;;;;;4952102;28;20035;-74
2022/10/21 13:02:18;;;;;;;12.85;6.40;;;19.70;49.30;;;;;;4951328;28;20097;-75
2022/10/21 13:04:46;;;;;;;11.13;6.97;;;19.60;49.40;;;;;;4934916;28;20043;-74